sensor_id;sensor_type;location;lat;lon;timestamp;P1;durP1;ratioP1;P2;durP2;ratioP2
63312;SDS011;49442;45.640;13.812;2023-12-22T00:01:30;32.92;;;25.35;;
63312;SDS011;49442;45.640;13.812;2023-12-22T00:03:56;35.25;;;24.42;;
63312;SDS011;49442;45.640;13.812;2023-12-22T00:06:21;27.60;;;21.08;;
63312;SDS011;49442;45.640;13.812;2023-12-22T00:08:47;37.75;;;27.73;;
63312;SDS011;49442;45.640;13.812;2023-12-22T00:11:13;42.72;;;31.35;;
63312;SDS011;49442;45.640;13.812;2023-12-22T00:13:39;47.63;;;36.75;;
63312;SDS011;49442;45.640;13.812;2023-12-22T00:16:04;45.75;;;34.58;;
63312;SDS011;49442;45.640;13.812;2023-12-22T00:18:30;48.50;;;33.70;;
63312;SDS011;49442;45.640;13.812;2023-12-22T00:20:56;45.67;;;35.90;;
63312;SDS011;49442;45.640;13.812;2023-12-22T00:23:22;51.47;;;37.17;;
63312;SDS011;49442;45.640;13.812;2023-12-22T00:25:48;52.25;;;37.05;;
63312;SDS011;49442;45.640;13.812;2023-12-22T00:28:14;51.78;;;37.38;;
63312;SDS011;49442;45.640;13.812;2023-12-22T00:30:39;55.95;;;38.38;;
63312;SDS011;49442;45.640;13.812;2023-12-22T00:33:05;57.65;;;40.72;;
63312;SDS011;49442;45.640;13.812;2023-12-22T00:35:31;54.30;;;40.05;;
63312;SDS011;49442;45.640;13.812;2023-12-22T00:37:58;54.25;;;38.88;;
63312;SDS011;49442;45.640;13.812;2023-12-22T00:40:23;54.10;;;39.78;;
63312;SDS011;49442;45.640;13.812;2023-12-22T00:42:49;54.35;;;39.28;;
63312;SDS011;49442;45.640;13.812;2023-12-22T00:45:14;55.38;;;40.90;;
63312;SDS011;49442;45.640;13.812;2023-12-22T00:47:40;60.33;;;41.42;;
63312;SDS011;49442;45.640;13.812;2023-12-22T00:50:06;58.47;;;41.58;;
63312;SDS011;49442;45.640;13.812;2023-12-22T00:52:33;52.22;;;37.65;;
63312;SDS011;49442;45.640;13.812;2023-12-22T00:54:58;54.08;;;38.15;;
63312;SDS011;49442;45.640;13.812;2023-12-22T00:57:24;57.38;;;40.78;;
63312;SDS011;49442;45.640;13.812;2023-12-22T00:59:50;58.63;;;40.10;;
63312;SDS011;49442;45.640;13.812;2023-12-22T01:02:17;61.97;;;40.95;;
63312;SDS011;49442;45.640;13.812;2023-12-22T01:04:43;55.78;;;39.13;;
63312;SDS011;49442;45.640;13.812;2023-12-22T01:07:09;56.33;;;38.88;;
63312;SDS011;49442;45.640;13.812;2023-12-22T01:09:36;57.90;;;40.38;;
63312;SDS011;49442;45.640;13.812;2023-12-22T01:12:02;56.63;;;40.17;;
63312;SDS011;49442;45.640;13.812;2023-12-22T01:14:29;56.97;;;41.53;;
63312;SDS011;49442;45.640;13.812;2023-12-22T01:16:55;59.53;;;40.03;;
63312;SDS011;49442;45.640;13.812;2023-12-22T01:19:21;62.67;;;43.67;;
63312;SDS011;49442;45.640;13.812;2023-12-22T01:21:47;66.35;;;45.53;;
63312;SDS011;49442;45.640;13.812;2023-12-22T01:24:14;68.00;;;46.63;;
63312;SDS011;49442;45.640;13.812;2023-12-22T01:26:40;62.85;;;43.72;;
63312;SDS011;49442;45.640;13.812;2023-12-22T01:29:06;61.30;;;43.40;;
63312;SDS011;49442;45.640;13.812;2023-12-22T01:31:31;60.47;;;42.85;;
63312;SDS011;49442;45.640;13.812;2023-12-22T01:33:57;56.45;;;41.58;;
63312;SDS011;49442;45.640;13.812;2023-12-22T01:36:23;59.95;;;42.10;;
63312;SDS011;49442;45.640;13.812;2023-12-22T01:38:48;68.88;;;43.95;;
63312;SDS011;49442;45.640;13.812;2023-12-22T01:41:14;58.42;;;42.63;;
63312;SDS011;49442;45.640;13.812;2023-12-22T01:43:40;58.85;;;42.95;;
63312;SDS011;49442;45.640;13.812;2023-12-22T01:46:05;66.93;;;47.08;;
63312;SDS011;49442;45.640;13.812;2023-12-22T01:48:34;61.33;;;44.08;;
63312;SDS011;49442;45.640;13.812;2023-12-22T01:51:01;66.90;;;47.30;;
63312;SDS011;49442;45.640;13.812;2023-12-22T01:53:27;65.95;;;45.22;;
63312;SDS011;49442;45.640;13.812;2023-12-22T01:55:54;62.88;;;44.55;;
63312;SDS011;49442;45.640;13.812;2023-12-22T01:58:21;78.65;;;51.33;;
63312;SDS011;49442;45.640;13.812;2023-12-22T02:00:48;75.18;;;50.70;;
63312;SDS011;49442;45.640;13.812;2023-12-22T02:03:14;59.33;;;43.92;;
63312;SDS011;49442;45.640;13.812;2023-12-22T02:05:43;64.88;;;44.40;;
63312;SDS011;49442;45.640;13.812;2023-12-22T02:08:10;74.05;;;48.38;;
63312;SDS011;49442;45.640;13.812;2023-12-22T02:10:36;76.60;;;50.78;;
63312;SDS011;49442;45.640;13.812;2023-12-22T02:13:03;74.85;;;51.50;;
63312;SDS011;49442;45.640;13.812;2023-12-22T02:15:30;65.35;;;44.72;;
63312;SDS011;49442;45.640;13.812;2023-12-22T02:18:05;64.13;;;44.90;;
63312;SDS011;49442;45.640;13.812;2023-12-22T02:20:32;74.18;;;51.05;;
63312;SDS011;49442;45.640;13.812;2023-12-22T02:22:57;68.57;;;46.90;;
63312;SDS011;49442;45.640;13.812;2023-12-22T02:25:23;73.43;;;47.75;;
63312;SDS011;49442;45.640;13.812;2023-12-22T02:33:12;74.22;;;49.30;;
63312;SDS011;49442;45.640;13.812;2023-12-22T02:35:41;81.22;;;49.47;;
63312;SDS011;49442;45.640;13.812;2023-12-22T02:38:09;70.32;;;50.53;;
63312;SDS011;49442;45.640;13.812;2023-12-22T02:40:37;68.07;;;45.00;;
63312;SDS011;49442;45.640;13.812;2023-12-22T02:43:03;67.70;;;47.85;;
63312;SDS011;49442;45.640;13.812;2023-12-22T02:45:31;67.95;;;45.97;;
63312;SDS011;49442;45.640;13.812;2023-12-22T02:47:57;68.65;;;49.83;;
63312;SDS011;49442;45.640;13.812;2023-12-22T02:50:23;72.25;;;50.13;;
63312;SDS011;49442;45.640;13.812;2023-12-22T02:52:49;76.03;;;50.75;;
63312;SDS011;49442;45.640;13.812;2023-12-22T02:55:14;71.03;;;49.35;;
63312;SDS011;49442;45.640;13.812;2023-12-22T02:57:40;72.75;;;47.92;;
63312;SDS011;49442;45.640;13.812;2023-12-22T03:00:06;78.10;;;50.80;;
63312;SDS011;49442;45.640;13.812;2023-12-22T03:02:32;80.28;;;51.50;;
63312;SDS011;49442;45.640;13.812;2023-12-22T03:04:58;76.38;;;51.95;;
63312;SDS011;49442;45.640;13.812;2023-12-22T03:07:24;74.68;;;51.83;;
63312;SDS011;49442;45.640;13.812;2023-12-22T03:09:49;71.88;;;49.17;;
63312;SDS011;49442;45.640;13.812;2023-12-22T03:12:15;78.05;;;51.58;;
63312;SDS011;49442;45.640;13.812;2023-12-22T03:14:41;81.60;;;52.17;;
63312;SDS011;49442;45.640;13.812;2023-12-22T03:17:07;76.43;;;52.03;;
63312;SDS011;49442;45.640;13.812;2023-12-22T03:19:33;77.07;;;54.63;;
63312;SDS011;49442;45.640;13.812;2023-12-22T03:21:59;78.90;;;52.22;;
63312;SDS011;49442;45.640;13.812;2023-12-22T03:24:25;103.05;;;52.28;;
63312;SDS011;49442;45.640;13.812;2023-12-22T03:26:53;69.07;;;49.33;;
63312;SDS011;49442;45.640;13.812;2023-12-22T03:29:19;74.45;;;51.33;;
63312;SDS011;49442;45.640;13.812;2023-12-22T03:31:45;73.90;;;50.25;;
63312;SDS011;49442;45.640;13.812;2023-12-22T03:34:11;70.40;;;50.42;;
63312;SDS011;49442;45.640;13.812;2023-12-22T03:36:38;75.43;;;51.75;;
63312;SDS011;49442;45.640;13.812;2023-12-22T03:39:04;79.38;;;53.28;;
63312;SDS011;49442;45.640;13.812;2023-12-22T03:41:30;82.03;;;52.63;;
63312;SDS011;49442;45.640;13.812;2023-12-22T03:43:56;77.00;;;49.67;;
63312;SDS011;49442;45.640;13.812;2023-12-22T03:46:22;74.40;;;50.97;;
63312;SDS011;49442;45.640;13.812;2023-12-22T03:48:48;78.72;;;52.20;;
63312;SDS011;49442;45.640;13.812;2023-12-22T03:51:17;74.22;;;49.35;;
63312;SDS011;49442;45.640;13.812;2023-12-22T03:53:43;79.38;;;52.42;;
63312;SDS011;49442;45.640;13.812;2023-12-22T03:56:08;75.00;;;48.92;;
63312;SDS011;49442;45.640;13.812;2023-12-22T03:58:35;72.82;;;51.35;;
63312;SDS011;49442;45.640;13.812;2023-12-22T04:01:01;75.18;;;50.13;;
63312;SDS011;49442;45.640;13.812;2023-12-22T04:03:27;69.60;;;48.53;;
63312;SDS011;49442;45.640;13.812;2023-12-22T04:05:52;75.78;;;50.70;;
63312;SDS011;49442;45.640;13.812;2023-12-22T04:08:18;75.30;;;51.53;;
63312;SDS011;49442;45.640;13.812;2023-12-22T04:10:45;77.05;;;50.88;;
63312;SDS011;49442;45.640;13.812;2023-12-22T04:13:11;80.00;;;53.05;;
63312;SDS011;49442;45.640;13.812;2023-12-22T04:15:37;76.25;;;51.92;;
63312;SDS011;49442;45.640;13.812;2023-12-22T04:18:03;76.57;;;50.45;;
63312;SDS011;49442;45.640;13.812;2023-12-22T04:20:29;76.38;;;50.10;;
63312;SDS011;49442;45.640;13.812;2023-12-22T04:22:55;78.07;;;50.47;;
63312;SDS011;49442;45.640;13.812;2023-12-22T04:25:20;81.90;;;51.08;;
63312;SDS011;49442;45.640;13.812;2023-12-22T04:27:48;80.68;;;50.88;;
63312;SDS011;49442;45.640;13.812;2023-12-22T04:30:14;84.00;;;54.95;;
63312;SDS011;49442;45.640;13.812;2023-12-22T04:32:40;78.60;;;53.55;;
63312;SDS011;49442;45.640;13.812;2023-12-22T04:35:06;77.93;;;52.58;;
63312;SDS011;49442;45.640;13.812;2023-12-22T04:37:32;76.22;;;51.78;;
63312;SDS011;49442;45.640;13.812;2023-12-22T04:39:58;74.57;;;50.38;;
63312;SDS011;49442;45.640;13.812;2023-12-22T04:42:23;65.57;;;47.08;;
63312;SDS011;49442;45.640;13.812;2023-12-22T04:44:50;68.40;;;47.40;;
63312;SDS011;49442;45.640;13.812;2023-12-22T04:47:19;67.90;;;43.50;;
63312;SDS011;49442;45.640;13.812;2023-12-22T04:49:45;61.58;;;42.42;;
63312;SDS011;49442;45.640;13.812;2023-12-22T04:52:11;67.03;;;45.85;;
63312;SDS011;49442;45.640;13.812;2023-12-22T04:54:37;67.25;;;44.40;;
63312;SDS011;49442;45.640;13.812;2023-12-22T04:57:03;69.38;;;44.88;;
63312;SDS011;49442;45.640;13.812;2023-12-22T04:59:29;55.67;;;41.58;;
63312;SDS011;49442;45.640;13.812;2023-12-22T05:01:55;59.28;;;39.50;;
63312;SDS011;49442;45.640;13.812;2023-12-22T05:04:21;56.13;;;39.03;;
63312;SDS011;49442;45.640;13.812;2023-12-22T05:06:47;57.00;;;39.03;;
63312;SDS011;49442;45.640;13.812;2023-12-22T05:09:13;55.47;;;39.08;;
63312;SDS011;49442;45.640;13.812;2023-12-22T05:11:39;47.85;;;35.90;;
63312;SDS011;49442;45.640;13.812;2023-12-22T05:14:05;52.92;;;34.42;;
63312;SDS011;49442;45.640;13.812;2023-12-22T05:16:31;53.28;;;36.67;;
63312;SDS011;49442;45.640;13.812;2023-12-22T05:18:57;48.97;;;34.80;;
63312;SDS011;49442;45.640;13.812;2023-12-22T05:21:23;60.33;;;41.25;;
63312;SDS011;49442;45.640;13.812;2023-12-22T05:23:49;64.25;;;43.78;;
63312;SDS011;49442;45.640;13.812;2023-12-22T05:26:21;70.82;;;48.75;;
63312;SDS011;49442;45.640;13.812;2023-12-22T05:28:47;77.00;;;48.95;;
63312;SDS011;49442;45.640;13.812;2023-12-22T05:31:16;74.63;;;48.35;;
63312;SDS011;49442;45.640;13.812;2023-12-22T05:33:42;64.72;;;44.80;;
63312;SDS011;49442;45.640;13.812;2023-12-22T05:36:08;69.78;;;46.72;;
63312;SDS011;49442;45.640;13.812;2023-12-22T05:38:39;71.18;;;48.85;;
63312;SDS011;49442;45.640;13.812;2023-12-22T05:41:05;62.65;;;43.67;;
63312;SDS011;49442;45.640;13.812;2023-12-22T05:43:31;84.60;;;45.00;;
63312;SDS011;49442;45.640;13.812;2023-12-22T05:45:58;66.55;;;45.17;;
63312;SDS011;49442;45.640;13.812;2023-12-22T05:48:25;60.72;;;42.00;;
63312;SDS011;49442;45.640;13.812;2023-12-22T05:50:51;58.75;;;40.35;;
63312;SDS011;49442;45.640;13.812;2023-12-22T05:53:16;50.53;;;35.70;;
63312;SDS011;49442;45.640;13.812;2023-12-22T05:55:42;54.55;;;37.38;;
63312;SDS011;49442;45.640;13.812;2023-12-22T05:58:08;60.25;;;36.65;;
63312;SDS011;49442;45.640;13.812;2023-12-22T06:00:34;50.08;;;35.67;;
63312;SDS011;49442;45.640;13.812;2023-12-22T06:03:00;49.30;;;34.22;;
63312;SDS011;49442;45.640;13.812;2023-12-22T06:05:26;51.97;;;36.05;;
63312;SDS011;49442;45.640;13.812;2023-12-22T06:07:52;55.63;;;38.13;;
63312;SDS011;49442;45.640;13.812;2023-12-22T06:10:18;52.10;;;36.63;;
63312;SDS011;49442;45.640;13.812;2023-12-22T06:12:44;56.40;;;37.08;;
63312;SDS011;49442;45.640;13.812;2023-12-22T06:15:09;53.63;;;37.47;;
63312;SDS011;49442;45.640;13.812;2023-12-22T06:17:35;52.85;;;36.13;;
63312;SDS011;49442;45.640;13.812;2023-12-22T06:20:01;60.17;;;39.42;;
63312;SDS011;49442;45.640;13.812;2023-12-22T06:22:27;59.00;;;39.35;;
63312;SDS011;49442;45.640;13.812;2023-12-22T06:24:52;56.90;;;40.75;;
63312;SDS011;49442;45.640;13.812;2023-12-22T06:27:18;57.75;;;39.72;;
63312;SDS011;49442;45.640;13.812;2023-12-22T06:29:44;54.92;;;37.67;;
63312;SDS011;49442;45.640;13.812;2023-12-22T06:32:10;63.97;;;42.47;;
63312;SDS011;49442;45.640;13.812;2023-12-22T06:34:35;62.88;;;41.88;;
63312;SDS011;49442;45.640;13.812;2023-12-22T06:37:01;63.42;;;44.50;;
63312;SDS011;49442;45.640;13.812;2023-12-22T06:39:27;70.82;;;45.15;;
63312;SDS011;49442;45.640;13.812;2023-12-22T06:41:52;68.00;;;45.85;;
63312;SDS011;49442;45.640;13.812;2023-12-22T06:44:18;70.82;;;46.65;;
63312;SDS011;49442;45.640;13.812;2023-12-22T06:46:44;71.80;;;41.85;;
63312;SDS011;49442;45.640;13.812;2023-12-22T06:49:10;73.90;;;43.55;;
63312;SDS011;49442;45.640;13.812;2023-12-22T06:51:36;69.10;;;45.83;;
63312;SDS011;49442;45.640;13.812;2023-12-22T06:54:02;85.28;;;50.97;;
63312;SDS011;49442;45.640;13.812;2023-12-22T06:56:33;82.28;;;50.78;;
63312;SDS011;49442;45.640;13.812;2023-12-22T06:59:00;61.78;;;45.08;;
63312;SDS011;49442;45.640;13.812;2023-12-22T07:01:29;88.35;;;51.25;;
63312;SDS011;49442;45.640;13.812;2023-12-22T07:03:56;91.60;;;53.87;;
63312;SDS011;49442;45.640;13.812;2023-12-22T07:06:23;109.00;;;65.60;;
63312;SDS011;49442;45.640;13.812;2023-12-22T07:09:35;79.07;;;48.78;;
63312;SDS011;49442;45.640;13.812;2023-12-22T07:11:48;80.85;;;51.47;;
63312;SDS011;49442;45.640;13.812;2023-12-22T07:14:15;86.37;;;55.90;;
63312;SDS011;49442;45.640;13.812;2023-12-22T07:16:41;76.82;;;50.47;;
63312;SDS011;49442;45.640;13.812;2023-12-22T07:19:09;63.60;;;45.22;;
63312;SDS011;49442;45.640;13.812;2023-12-22T07:21:38;65.97;;;42.85;;
63312;SDS011;49442;45.640;13.812;2023-12-22T07:24:05;63.10;;;43.55;;
63312;SDS011;49442;45.640;13.812;2023-12-22T07:26:31;63.50;;;40.08;;
63312;SDS011;49442;45.640;13.812;2023-12-22T07:28:56;58.35;;;40.13;;
63312;SDS011;49442;45.640;13.812;2023-12-22T07:31:32;61.17;;;40.35;;
63312;SDS011;49442;45.640;13.812;2023-12-22T07:33:57;55.78;;;37.70;;
63312;SDS011;49442;45.640;13.812;2023-12-22T07:36:23;55.75;;;37.10;;
63312;SDS011;49442;45.640;13.812;2023-12-22T07:38:49;56.00;;;38.45;;
63312;SDS011;49442;45.640;13.812;2023-12-22T07:41:16;53.10;;;36.58;;
63312;SDS011;49442;45.640;13.812;2023-12-22T07:43:42;53.72;;;35.35;;
63312;SDS011;49442;45.640;13.812;2023-12-22T07:46:07;61.13;;;35.63;;
63312;SDS011;49442;45.640;13.812;2023-12-22T07:48:34;47.55;;;34.60;;
63312;SDS011;49442;45.640;13.812;2023-12-22T07:51:00;52.25;;;35.97;;
63312;SDS011;49442;45.640;13.812;2023-12-22T07:53:25;55.95;;;35.50;;
63312;SDS011;49442;45.640;13.812;2023-12-22T07:55:51;52.35;;;34.30;;
63312;SDS011;49442;45.640;13.812;2023-12-22T07:58:17;69.97;;;44.45;;
63312;SDS011;49442;45.640;13.812;2023-12-22T08:00:42;68.32;;;46.67;;
63312;SDS011;49442;45.640;13.812;2023-12-22T08:03:08;72.90;;;47.40;;
63312;SDS011;49442;45.640;13.812;2023-12-22T08:05:34;68.72;;;47.90;;
63312;SDS011;49442;45.640;13.812;2023-12-22T08:08:00;77.22;;;51.05;;
63312;SDS011;49442;45.640;13.812;2023-12-22T08:10:26;79.18;;;53.40;;
63312;SDS011;49442;45.640;13.812;2023-12-22T08:12:52;86.55;;;52.78;;
63312;SDS011;49442;45.640;13.812;2023-12-22T08:15:18;79.10;;;53.60;;
63312;SDS011;49442;45.640;13.812;2023-12-22T08:17:47;70.47;;;50.78;;
63312;SDS011;49442;45.640;13.812;2023-12-22T08:20:20;70.85;;;51.90;;
63312;SDS011;49442;45.640;13.812;2023-12-22T08:22:46;78.47;;;52.05;;
63312;SDS011;49442;45.640;13.812;2023-12-22T08:25:13;74.78;;;49.42;;
63312;SDS011;49442;45.640;13.812;2023-12-22T08:27:39;71.47;;;49.95;;
63312;SDS011;49442;45.640;13.812;2023-12-22T08:30:06;72.93;;;50.58;;
63312;SDS011;49442;45.640;13.812;2023-12-22T08:32:32;71.00;;;52.15;;
63312;SDS011;49442;45.640;13.812;2023-12-22T08:34:57;80.18;;;51.53;;
63312;SDS011;49442;45.640;13.812;2023-12-22T08:37:23;76.65;;;52.13;;
63312;SDS011;49442;45.640;13.812;2023-12-22T08:39:49;79.07;;;53.50;;
63312;SDS011;49442;45.640;13.812;2023-12-22T08:42:15;77.95;;;52.95;;
63312;SDS011;49442;45.640;13.812;2023-12-22T08:44:42;79.50;;;54.95;;
63312;SDS011;49442;45.640;13.812;2023-12-22T08:47:07;91.22;;;57.25;;
63312;SDS011;49442;45.640;13.812;2023-12-22T08:49:33;78.88;;;54.53;;
63312;SDS011;49442;45.640;13.812;2023-12-22T08:51:59;83.90;;;55.95;;
63312;SDS011;49442;45.640;13.812;2023-12-22T08:54:24;76.95;;;52.42;;
63312;SDS011;49442;45.640;13.812;2023-12-22T08:56:51;82.20;;;51.70;;
63312;SDS011;49442;45.640;13.812;2023-12-22T08:59:17;67.72;;;50.17;;
63312;SDS011;49442;45.640;13.812;2023-12-22T09:01:43;71.30;;;49.42;;
63312;SDS011;49442;45.640;13.812;2023-12-22T09:04:09;71.60;;;50.60;;
63312;SDS011;49442;45.640;13.812;2023-12-22T09:06:36;69.32;;;48.65;;
63312;SDS011;49442;45.640;13.812;2023-12-22T09:09:02;65.53;;;50.00;;
63312;SDS011;49442;45.640;13.812;2023-12-22T09:11:32;64.60;;;47.22;;
63312;SDS011;49442;45.640;13.812;2023-12-22T09:13:58;70.22;;;47.03;;
63312;SDS011;49442;45.640;13.812;2023-12-22T09:16:24;66.65;;;46.35;;
63312;SDS011;49442;45.640;13.812;2023-12-22T09:18:50;62.42;;;44.97;;
63312;SDS011;49442;45.640;13.812;2023-12-22T09:21:16;63.42;;;47.10;;
63312;SDS011;49442;45.640;13.812;2023-12-22T09:23:46;64.82;;;46.88;;
63312;SDS011;49442;45.640;13.812;2023-12-22T09:26:12;67.78;;;47.63;;
63312;SDS011;49442;45.640;13.812;2023-12-22T09:28:39;65.25;;;47.50;;
63312;SDS011;49442;45.640;13.812;2023-12-22T09:31:06;71.20;;;47.97;;
63312;SDS011;49442;45.640;13.812;2023-12-22T09:33:32;68.10;;;48.38;;
63312;SDS011;49442;45.640;13.812;2023-12-22T09:35:58;62.63;;;47.33;;
63312;SDS011;49442;45.640;13.812;2023-12-22T09:38:24;63.63;;;45.85;;
63312;SDS011;49442;45.640;13.812;2023-12-22T09:40:50;71.10;;;44.50;;
63312;SDS011;49442;45.640;13.812;2023-12-22T09:43:16;67.28;;;49.53;;
63312;SDS011;49442;45.640;13.812;2023-12-22T09:45:45;68.20;;;50.33;;
63312;SDS011;49442;45.640;13.812;2023-12-22T09:48:12;70.72;;;50.60;;
63312;SDS011;49442;45.640;13.812;2023-12-22T09:50:45;72.30;;;51.08;;
63312;SDS011;49442;45.640;13.812;2023-12-22T09:53:14;74.65;;;51.67;;
63312;SDS011;49442;45.640;13.812;2023-12-22T09:55:42;76.03;;;52.72;;
63312;SDS011;49442;45.640;13.812;2023-12-22T09:58:11;71.25;;;51.10;;
63312;SDS011;49442;45.640;13.812;2023-12-22T10:00:39;77.00;;;49.88;;
63312;SDS011;49442;45.640;13.812;2023-12-22T10:03:09;70.80;;;49.65;;
63312;SDS011;49442;45.640;13.812;2023-12-22T10:05:37;70.85;;;49.58;;
63312;SDS011;49442;45.640;13.812;2023-12-22T10:08:04;74.00;;;50.17;;
63312;SDS011;49442;45.640;13.812;2023-12-22T10:10:30;67.78;;;50.63;;
63312;SDS011;49442;45.640;13.812;2023-12-22T10:12:58;74.63;;;52.90;;
63312;SDS011;49442;45.640;13.812;2023-12-22T10:15:27;73.95;;;54.58;;
63312;SDS011;49442;45.640;13.812;2023-12-22T10:17:54;73.78;;;54.97;;
63312;SDS011;49442;45.640;13.812;2023-12-22T10:20:21;71.90;;;53.38;;
63312;SDS011;49442;45.640;13.812;2023-12-22T10:22:47;74.50;;;51.63;;
63312;SDS011;49442;45.640;13.812;2023-12-22T10:25:18;69.75;;;51.38;;
63312;SDS011;49442;45.640;13.812;2023-12-22T10:27:45;65.65;;;49.75;;
63312;SDS011;49442;45.640;13.812;2023-12-22T10:30:11;68.07;;;49.15;;
63312;SDS011;49442;45.640;13.812;2023-12-22T10:32:41;70.57;;;49.25;;
63312;SDS011;49442;45.640;13.812;2023-12-22T10:35:08;64.43;;;48.95;;
63312;SDS011;49442;45.640;13.812;2023-12-22T10:37:34;70.63;;;47.63;;
63312;SDS011;49442;45.640;13.812;2023-12-22T10:39:59;61.75;;;45.97;;
63312;SDS011;49442;45.640;13.812;2023-12-22T10:42:26;63.35;;;45.45;;
63312;SDS011;49442;45.640;13.812;2023-12-22T10:44:51;59.50;;;45.63;;
63312;SDS011;49442;45.640;13.812;2023-12-22T10:47:18;59.97;;;43.90;;
63312;SDS011;49442;45.640;13.812;2023-12-22T10:49:46;61.35;;;45.13;;
63312;SDS011;49442;45.640;13.812;2023-12-22T10:52:15;62.45;;;48.17;;
63312;SDS011;49442;45.640;13.812;2023-12-22T10:54:45;61.78;;;46.60;;
63312;SDS011;49442;45.640;13.812;2023-12-22T10:57:13;63.35;;;44.88;;
63312;SDS011;49442;45.640;13.812;2023-12-22T10:59:45;62.70;;;47.05;;
63312;SDS011;49442;45.640;13.812;2023-12-22T11:02:15;65.78;;;48.05;;
63312;SDS011;49442;45.640;13.812;2023-12-22T11:04:44;65.15;;;49.60;;
63312;SDS011;49442;45.640;13.812;2023-12-22T11:07:18;61.65;;;47.00;;
63312;SDS011;49442;45.640;13.812;2023-12-22T11:09:48;67.90;;;47.83;;
63312;SDS011;49442;45.640;13.812;2023-12-22T11:12:17;60.35;;;47.53;;
63312;SDS011;49442;45.640;13.812;2023-12-22T11:14:44;62.17;;;46.67;;
63312;SDS011;49442;45.640;13.812;2023-12-22T11:17:16;60.63;;;46.05;;
63312;SDS011;49442;45.640;13.812;2023-12-22T11:19:47;65.55;;;47.03;;
63312;SDS011;49442;45.640;13.812;2023-12-22T11:22:16;61.15;;;47.35;;
63312;SDS011;49442;45.640;13.812;2023-12-22T11:24:44;63.53;;;46.55;;
63312;SDS011;49442;45.640;13.812;2023-12-22T11:27:13;67.50;;;47.15;;
63312;SDS011;49442;45.640;13.812;2023-12-22T11:29:44;59.50;;;45.40;;
63312;SDS011;49442;45.640;13.812;2023-12-22T11:32:17;58.05;;;44.70;;
63312;SDS011;49442;45.640;13.812;2023-12-22T11:34:44;54.40;;;42.58;;
63312;SDS011;49442;45.640;13.812;2023-12-22T11:37:12;56.83;;;44.42;;
63312;SDS011;49442;45.640;13.812;2023-12-22T11:39:42;55.63;;;42.47;;
63312;SDS011;49442;45.640;13.812;2023-12-22T11:42:10;54.97;;;41.50;;
63312;SDS011;49442;45.640;13.812;2023-12-22T11:44:42;53.70;;;41.35;;
63312;SDS011;49442;45.640;13.812;2023-12-22T11:47:09;56.92;;;44.08;;
63312;SDS011;49442;45.640;13.812;2023-12-22T11:49:36;57.80;;;43.83;;
63312;SDS011;49442;45.640;13.812;2023-12-22T11:52:18;55.17;;;44.28;;
63312;SDS011;49442;45.640;13.812;2023-12-22T11:54:51;58.83;;;43.60;;
63312;SDS011;49442;45.640;13.812;2023-12-22T11:59:53;58.53;;;42.70;;
63312;SDS011;49442;45.640;13.812;2023-12-22T12:02:20;54.55;;;43.58;;
63312;SDS011;49442;45.640;13.812;2023-12-22T12:04:52;64.03;;;45.42;;
63312;SDS011;49442;45.640;13.812;2023-12-22T12:10:11;63.33;;;45.20;;
63312;SDS011;49442;45.640;13.812;2023-12-22T12:12:38;56.08;;;44.30;;
63312;SDS011;49442;45.640;13.812;2023-12-22T12:15:07;56.65;;;43.65;;
63312;SDS011;49442;45.640;13.812;2023-12-22T12:17:38;61.40;;;45.57;;
63312;SDS011;49442;45.640;13.812;2023-12-22T12:20:07;55.75;;;43.22;;
63312;SDS011;49442;45.640;13.812;2023-12-22T12:22:37;62.03;;;43.90;;
63312;SDS011;49442;45.640;13.812;2023-12-22T12:25:07;62.05;;;43.13;;
63312;SDS011;49442;45.640;13.812;2023-12-22T12:27:36;53.88;;;41.10;;
63312;SDS011;49442;45.640;13.812;2023-12-22T12:30:10;54.83;;;42.10;;
63312;SDS011;49442;45.640;13.812;2023-12-22T12:32:38;56.42;;;41.60;;
63312;SDS011;49442;45.640;13.812;2023-12-22T12:35:04;59.80;;;42.63;;
63312;SDS011;49442;45.640;13.812;2023-12-22T12:37:30;48.40;;;35.97;;
63312;SDS011;49442;45.640;13.812;2023-12-22T12:39:57;47.28;;;34.60;;
63312;SDS011;49442;45.640;13.812;2023-12-22T12:42:28;49.33;;;37.60;;
63312;SDS011;49442;45.640;13.812;2023-12-22T12:44:57;52.97;;;37.70;;
63312;SDS011;49442;45.640;13.812;2023-12-22T12:47:23;50.85;;;33.90;;
63312;SDS011;49442;45.640;13.812;2023-12-22T12:49:58;46.20;;;31.20;;
63312;SDS011;49442;45.640;13.812;2023-12-22T12:52:25;45.10;;;33.00;;
63312;SDS011;49442;45.640;13.812;2023-12-22T12:54:52;48.40;;;34.17;;
63312;SDS011;49442;45.640;13.812;2023-12-22T12:57:18;46.53;;;32.80;;
63312;SDS011;49442;45.640;13.812;2023-12-22T12:59:45;44.85;;;34.30;;
63312;SDS011;49442;45.640;13.812;2023-12-22T13:02:12;51.83;;;34.88;;
63312;SDS011;49442;45.640;13.812;2023-12-22T13:04:37;45.30;;;34.33;;
63312;SDS011;49442;45.640;13.812;2023-12-22T13:07:03;46.13;;;33.78;;
63312;SDS011;49442;45.640;13.812;2023-12-22T13:09:33;47.63;;;32.97;;
63312;SDS011;49442;45.640;13.812;2023-12-22T13:11:59;45.97;;;33.03;;
63312;SDS011;49442;45.640;13.812;2023-12-22T13:14:25;45.67;;;32.53;;
63312;SDS011;49442;45.640;13.812;2023-12-22T13:16:52;62.95;;;44.80;;
63312;SDS011;49442;45.640;13.812;2023-12-22T13:19:21;65.18;;;43.10;;
63312;SDS011;49442;45.640;13.812;2023-12-22T13:21:50;58.35;;;41.78;;
63312;SDS011;49442;45.640;13.812;2023-12-22T13:24:17;57.47;;;42.25;;
63312;SDS011;49442;45.640;13.812;2023-12-22T13:26:44;59.40;;;43.13;;
63312;SDS011;49442;45.640;13.812;2023-12-22T13:29:10;61.60;;;42.45;;
63312;SDS011;49442;45.640;13.812;2023-12-22T13:31:38;52.80;;;39.65;;
63312;SDS011;49442;45.640;13.812;2023-12-22T13:34:08;56.75;;;43.58;;
63312;SDS011;49442;45.640;13.812;2023-12-22T13:36:38;61.55;;;44.15;;
63312;SDS011;49442;45.640;13.812;2023-12-22T13:39:07;56.90;;;41.88;;
63312;SDS011;49442;45.640;13.812;2023-12-22T13:41:34;60.47;;;41.92;;
63312;SDS011;49442;45.640;13.812;2023-12-22T13:44:12;59.65;;;41.47;;
63312;SDS011;49442;45.640;13.812;2023-12-22T13:46:39;57.53;;;39.55;;
63312;SDS011;49442;45.640;13.812;2023-12-22T13:49:10;57.95;;;40.58;;
63312;SDS011;49442;45.640;13.812;2023-12-22T13:51:40;55.72;;;39.55;;
63312;SDS011;49442;45.640;13.812;2023-12-22T13:54:09;53.20;;;38.45;;
63312;SDS011;49442;45.640;13.812;2023-12-22T13:56:38;46.40;;;34.35;;
63312;SDS011;49442;45.640;13.812;2023-12-22T13:59:08;48.78;;;33.63;;
63312;SDS011;49442;45.640;13.812;2023-12-22T14:01:35;45.83;;;32.40;;
63312;SDS011;49442;45.640;13.812;2023-12-22T14:04:01;48.75;;;30.33;;
63312;SDS011;49442;45.640;13.812;2023-12-22T14:06:28;40.00;;;29.02;;
63312;SDS011;49442;45.640;13.812;2023-12-22T14:08:54;48.83;;;29.60;;
63312;SDS011;49442;45.640;13.812;2023-12-22T14:11:21;44.70;;;27.90;;
63312;SDS011;49442;45.640;13.812;2023-12-22T14:13:47;47.38;;;28.92;;
63312;SDS011;49442;45.640;13.812;2023-12-22T14:16:12;41.38;;;27.08;;
63312;SDS011;49442;45.640;13.812;2023-12-22T14:18:40;37.95;;;24.77;;